ESST/TYF METAR and TAF weather

Enter ICAO airport designator
Station Type Date Time Source
ESST METAR 2019/08/22 03:50 UTC NOAA

ESST 220350Z VRB02KT CAVOK 07/07 Q1022


Station Type Date Time Source
ESST Decoded METAR 2019/08/22 03:50 UTC NOAA

Station name not available
Aug 21, 2019 - 11:50 PM EDT / 2019.08.22 0350 UTC
Wind: Variable at 2 MPH (2 KT):0
Visibility: greater than 7 mile(s):0
Temperature: 44 F (7 C)
Dew Point: 44 F (7 C)
Relative Humidity: 100%
Pressure (altimeter): 30.18 in. Hg (1022 hPa)
ob: ESST 220350Z VRB02KT CAVOK 07/07 Q1022
cycle: 4

Station Type Date Time Source
ESST TAF UTC NOAA

Error!

Example: see airport list